Time;durP1;ratioP1;P1;durP2;ratioP2;P2;SDS_P1;SDS_P2;PMS_P1;PMS_P2;Temp;Humidity;BMP_temperature;BMP_pressure;BME280_temperature;BME280_humidity;BME280_pressure;Samples;Min_cycle;Max_cycle;Signal;HPM_P1;HPM_P2
2022/10/26 00:02:38;;;;;;;2.07;1.00;;;;;;;;;;21002081;28;20642;-74
2022/10/26 00:12:40;;;;;;;2.37;0.90;;;;;;;;;;20972479;28;20201;-74
2022/10/26 00:22:42;;;;;;;3.43;0.90;;;;;;;;;;21002575;28;20239;-74
2022/10/26 00:32:43;;;;;;;2.20;0.87;;;;;;;;;;20989746;28;20274;-74
2022/10/26 00:42:45;;;;;;;1.27;0.70;;;;;;;;;;20988469;28;20225;-74
2022/10/26 00:52:48;;;;;;;2.10;0.90;;;13.90;99.90;;;;;;20985092;28;20209;-74
2022/10/26 01:02:53;;;;;;;2.37;0.97;;;13.80;99.90;;;;;;20989186;28;20274;-74
2022/10/26 01:12:57;;;;;;;4.70;0.90;;;;;;;;;;20998612;28;20337;-74
2022/10/26 01:23:05;;;;;;;1.77;0.77;;;;;;;;;;21000407;28;20217;-73
2022/10/26 01:33:15;;;;;;;1.57;0.90;;;;;;;;;;21016860;28;20235;-75
2022/10/26 01:43:18;;;;;;;3.03;0.93;;;13.80;99.90;;;;;;21012798;28;20212;-75
2022/10/26 01:53:20;;;;;;;5.20;1.07;;;;;;;;;;20979309;28;20239;-74
2022/10/26 02:03:42;;;;;;;1.97;0.90;;;;;;;;;;20976316;28;20217;-74
2022/10/26 02:14:20;;;;;;;4.70;0.90;;;;;;;;;;20998580;28;20257;-74
2022/10/26 02:24:22;;;;;;;1.27;0.70;;;;;;;;;;20897705;28;20263;-75
2022/10/26 02:34:27;;;;;;;2.20;1.07;;;13.70;99.90;;;;;;20940427;28;20684;-74
2022/10/26 02:44:35;;;;;;;1.07;0.63;;;13.80;99.90;;;;;;20956552;22;20230;-72
2022/10/26 02:54:39;;;;;;;2.13;0.90;;;;;;;;;;20903543;28;20237;-72
2022/10/26 03:04:41;;;;;;;1.90;0.70;;;;;;;;;;20901725;28;20316;-72
2022/10/26 03:14:43;;;;;;;2.77;0.87;;;;;;;;;;20902010;28;20214;-72
2022/10/26 03:24:44;;;;;;;1.57;0.80;;;;;;;;;;20884641;28;20601;-70
2022/10/26 03:34:46;;;;;;;2.03;1.00;;;;;;;;;;20902835;28;20268;-72
2022/10/26 03:44:48;;;;;;;4.47;0.93;;;;;;;;;;20900061;28;20657;-72
2022/10/26 03:54:50;;;;;;;1.97;0.90;;;;;;;;;;20908388;28;20270;-72
2022/10/26 04:04:52;;;;;;;4.50;1.30;;;;;;;;;;20941727;28;20221;-72
2022/10/26 04:14:57;;;;;;;1.67;1.13;;;;;;;;;;20960197;28;20237;-72
2022/10/26 04:24:59;;;;;;;6.30;2.33;;;;;;;;;;20955610;28;20631;-72
2022/10/26 04:35:00;;;;;;;1.97;1.13;;;;;;;;;;20981385;28;20205;-72
2022/10/26 04:45:02;;;;;;;2.20;1.23;;;13.70;99.90;;;;;;20928363;28;20458;-72
2022/10/26 04:55:05;;;;;;;1.03;0.70;;;13.50;99.90;;;;;;20898743;28;20236;-72
2022/10/26 05:05:06;;;;;;;3.13;0.73;;;;;;;;;;20904009;28;20214;-72
2022/10/26 05:15:10;;;;;;;4.67;0.80;;;13.40;99.90;;;;;;20894009;28;20561;-72
2022/10/26 05:25:12;;;;;;;5.20;0.93;;;;;;;;;;20909193;28;20218;-71
2022/10/26 05:35:14;;;;;;;1.67;0.70;;;;;;;;;;20916932;28;20263;-73
2022/10/26 05:45:19;;;;;;;1.13;0.60;;;;;;;;;;20908705;28;20291;-72
2022/10/26 05:55:21;;;;;;;1.50;0.70;;;;;;;;;;20909421;28;20275;-71
2022/10/26 06:05:26;;;;;;;1.10;0.70;;;;;;;;;;20941250;28;20295;-69
2022/10/26 06:15:31;;;;;;;1.20;0.67;;;13.30;99.90;;;;;;20905839;28;20634;-71
2022/10/26 06:25:54;;;;;;;2.93;0.80;;;13.30;99.90;;;;;;20977474;28;20286;-71
2022/10/26 06:35:56;;;;;;;3.83;1.47;;;;;;;;;;20990533;28;20209;-71
2022/10/26 06:46:23;;;;;;;1.97;1.07;;;;;;;;;;20975304;28;20278;-72
2022/10/26 06:56:26;;;;;;;1.07;0.63;;;13.30;99.90;;;;;;20952995;28;20215;-71
2022/10/26 07:06:28;;;;;;;2.27;1.00;;;;;;;;;;20964213;28;20217;-75
2022/10/26 07:16:30;;;;;;;1.83;0.90;;;;;;;;;;20937679;28;20221;-74
2022/10/26 07:26:31;;;;;;;2.87;1.33;;;;;;;;;;20979819;28;20275;-74
2022/10/26 07:36:35;;;;;;;3.07;0.77;;;;;;;;;;20887173;28;20225;-75
2022/10/26 07:46:37;;;;;;;7.47;0.80;;;;;;;;;;20897481;28;20247;-75
2022/10/26 07:56:38;;;;;;;1.87;0.80;;;;;;;;;;20895356;28;20705;-73
2022/10/26 08:06:40;;;;;;;3.03;1.10;;;;;;;;;;20901167;28;20210;-73
2022/10/26 08:16:42;;;;;;;1.07;0.70;;;;;;;;;;20891529;28;20233;-75
2022/10/26 08:26:44;;;;;;;5.40;1.40;;;;;;;;;;20808669;28;20218;-74
2022/10/26 08:36:46;;;;;;;1.57;0.80;;;;;;;;;;20891962;28;20225;-76
2022/10/26 08:46:52;;;;;;;1.57;0.80;;;;;;;;;;20834786;23;20281;-69
2022/10/26 08:57:00;;;;;;;2.13;1.07;;;;;;;;;;20743611;28;20231;-70
2022/10/26 09:07:25;;;;;;;1.77;0.90;;;;;;;;;;20821094;23;20770;-77
2022/10/26 09:17:33;;;;;;;2.40;0.90;;;;;;;;;;20889279;28;20205;-78
2022/10/26 09:27:40;;;;;;;2.40;1.30;;;;;;;;;;20872694;28;20209;-75
2022/10/26 09:37:45;;;;;;;0.50;0.40;;;;;;;;;;20893682;28;20704;-76
2022/10/26 09:47:51;;;;;;;1.93;1.07;;;;;;;;;;20892908;28;20681;-77
2022/10/26 09:57:57;;;;;;;2.00;0.60;;;;;;;;;;20908923;28;20251;-77
2022/10/26 10:08:17;;;;;;;3.60;1.00;;;;;;;;;;20884241;28;20229;-77
2022/10/26 10:18:23;;;;;;;1.63;0.70;;;;;;;;;;20906177;28;20275;-77
2022/10/26 10:28:25;;;;;;;3.00;0.70;;;;;;;;;;20913265;28;20697;-74
2022/10/26 10:38:28;;;;;;;5.93;0.73;;;;;;;;;;20887403;28;20767;-76
2022/10/26 10:48:30;;;;;;;11.23;1.90;;;;;;;;;;20821304;28;20222;-77
2022/10/26 10:58:41;;;;;;;4.37;0.90;;;17.30;99.90;;;;;;20821509;28;20230;-77
2022/10/26 11:09:10;;;;;;;2.67;0.77;;;17.20;99.90;;;;;;20865500;28;20715;-77
2022/10/26 11:19:30;;;;;;;1.57;0.63;;;17.10;99.90;;;;;;20901040;28;20230;-76
2022/10/26 11:29:40;;;;;;;2.03;0.80;;;;;;;;;;20883516;28;20214;-75
2022/10/26 11:39:45;;;;;;;3.60;1.00;;;17.00;99.90;;;;;;20900279;28;20756;-76
2022/10/26 11:49:57;;;;;;;4.70;0.60;;;;;;;;;;20898403;28;20197;-75
2022/10/26 12:00:04;;;;;;;1.50;0.80;;;;;;;;;;20898610;28;20263;-76
2022/10/26 12:10:12;;;;;;;2.00;0.70;;;;;;;;;;20879097;28;20260;-76
2022/10/26 12:20:32;;;;;;;1.57;0.80;;;;;;;;;;20863755;28;20700;-77
2022/10/26 12:30:36;;;;;;;1.20;0.50;;;19.50;99.90;;;;;;20898238;28;20225;-74
2022/10/26 12:40:40;;;;;;;1.90;0.73;;;;;;;;;;20896142;28;20230;-76
2022/10/26 12:50:41;;;;;;;2.93;0.90;;;;;;;;;;20861898;28;20699;-75
2022/10/26 13:00:54;;;;;;;2.97;0.80;;;;;;;;;;20880345;28;20278;-76
2022/10/26 13:11:03;;;;;;;2.90;0.70;;;19.90;99.90;;;;;;20898946;28;20267;-77
2022/10/26 13:21:11;;;;;;;2.27;0.50;;;;;;;;;;20879183;28;20543;-76
2022/10/26 13:31:40;;;;;;;2.07;0.70;;;;;;;;;;20907117;28;20201;-76
2022/10/26 13:41:46;;;;;;;1.70;0.60;;;;;;;;;;20908307;28;20278;-78
2022/10/26 13:51:50;;;;;;;2.40;0.97;;;;;;;;;;20910927;28;20213;-77
2022/10/26 14:02:08;;;;;;;1.43;0.60;;;;;;;;;;20912065;28;20217;-77
2022/10/26 14:12:10;;;;;;;1.50;1.03;;;19.50;99.90;;;;;;20891595;28;20245;-77
2022/10/26 14:22:21;;;;;;;1.83;0.70;;;19.30;99.90;;;;;;20907545;28;20244;-77
2022/10/26 14:32:27;;;;;;;2.33;1.03;;;19.10;99.90;;;;;;20906284;28;20201;-77
2022/10/26 14:42:34;;;;;;;1.43;0.80;;;19.00;99.90;;;;;;20901380;22;20311;-74
2022/10/26 14:52:36;;;;;;;3.87;1.00;;;;;;;;;;20894725;28;20228;-74
2022/10/26 15:02:38;;;;;;;4.37;1.00;;;18.80;99.90;;;;;;20762765;28;20216;-73
2022/10/26 15:12:41;;;;;;;2.13;1.00;;;;;;;;;;20811489;28;20229;-72
2022/10/26 15:22:49;;;;;;;1.87;0.77;;;;;;;;;;20816705;28;20663;-72
2022/10/26 15:32:52;;;;;;;2.47;0.90;;;;;;;;;;20816594;28;20291;-73
2022/10/26 15:42:54;;;;;;;1.00;0.70;;;;;;;;;;20817391;28;20233;-72
2022/10/26 15:53:01;;;;;;;0.93;0.50;;;;;;;;;;20816764;28;20218;-72
2022/10/26 16:03:02;;;;;;;5.50;0.97;;;;;;;;;;20821096;28;20250;-73
2022/10/26 16:13:05;;;;;;;1.23;0.70;;;;;;;;;;20809856;28;20204;-72
2022/10/26 16:23:07;;;;;;;1.73;0.70;;;;;;;;;;20809666;28;20241;-72
2022/10/26 16:33:09;;;;;;;4.80;0.83;;;;;;;;;;20807945;28;20215;-72
2022/10/26 16:43:11;;;;;;;1.97;0.70;;;;;;;;;;20831976;28;20260;-73
2022/10/26 16:53:12;;;;;;;1.50;0.50;;;;;;;;;;20802476;28;20756;-74
2022/10/26 17:03:15;;;;;;;1.50;0.70;;;;;;;;;;20810920;28;20289;-74
2022/10/26 17:13:16;;;;;;;1.97;0.70;;;;;;;;;;20807522;28;20230;-74
2022/10/26 17:23:18;;;;;;;1.00;0.60;;;;;;;;;;20842561;28;20278;-74
2022/10/26 17:33:20;;;;;;;1.67;0.63;;;;;;;;;;20855053;28;20211;-73
2022/10/26 17:43:22;;;;;;;1.10;0.57;;;;;;;;;;20798313;28;20746;-73
2022/10/26 17:53:24;;;;;;;3.90;0.80;;;;;;;;;;20793760;28;20220;-73
2022/10/26 18:03:26;;;;;;;2.90;0.90;;;;;;;;;;20797900;28;20288;-74
2022/10/26 18:13:30;;;;;;;1.30;0.50;;;17.30;99.90;;;;;;20813993;28;20255;-73
2022/10/26 18:23:32;;;;;;;3.27;0.77;;;;;;;;;;20800682;28;20253;-73
2022/10/26 18:33:34;;;;;;;1.40;0.60;;;;;;;;;;20806323;28;20296;-73
2022/10/26 18:43:40;;;;;;;2.13;0.80;;;;;;;;;;20766570;28;20312;-73
2022/10/26 18:53:42;;;;;;;2.97;0.83;;;;;;;;;;20792457;28;20206;-73
2022/10/26 19:03:44;;;;;;;1.30;0.73;;;;;;;;;;20826905;28;20283;-73
2022/10/26 19:13:49;;;;;;;3.10;1.00;;;;;;;;;;20817322;28;20230;-73
2022/10/26 19:23:51;;;;;;;1.30;0.80;;;;;;;;;;20888160;28;20250;-73
2022/10/26 19:33:55;;;;;;;1.90;0.80;;;;;;;;;;20872497;28;20615;-74
2022/10/26 19:43:57;;;;;;;1.37;0.60;;;;;;;;;;20825276;28;20218;-73
2022/10/26 19:54:01;;;;;;;2.50;1.00;;;;;;;;;;20780189;28;20284;-73
2022/10/26 20:04:04;;;;;;;2.87;1.17;;;;;;;;;;20810886;28;20246;-72
2022/10/26 20:14:06;;;;;;;3.07;1.10;;;;;;;;;;20797533;28;20202;-74
2022/10/26 20:24:08;;;;;;;2.00;0.97;;;;;;;;;;20812190;28;20284;-74
2022/10/26 20:34:10;;;;;;;2.47;1.00;;;;;;;;;;20815465;28;20304;-73
2022/10/26 20:44:18;;;;;;;3.27;1.10;;;;;;;;;;20830604;28;20459;-73
2022/10/26 20:54:33;;;;;;;1.67;1.03;;;16.10;99.90;;;;;;20815049;28;20215;-73
2022/10/26 21:04:35;;;;;;;2.93;1.30;;;;;;;;;;20831445;28;20244;-74
2022/10/26 21:14:39;;;;;;;3.67;0.90;;;;;;;;;;20817613;28;20300;-73
2022/10/26 21:24:41;;;;;;;3.00;0.80;;;;;;;;;;20798078;28;20253;-75
2022/10/26 21:34:43;;;;;;;1.80;0.90;;;;;;;;;;20848167;22;20229;-66
2022/10/26 21:44:45;;;;;;;2.67;1.10;;;;;;;;;;20788051;28;20269;-66
2022/10/26 21:54:47;;;;;;;1.93;0.77;;;;;;;;;;20800171;28;20751;-66
2022/10/26 22:04:49;;;;;;;2.57;1.10;;;;;;;;;;20796036;28;20685;-68
2022/10/26 22:14:51;;;;;;;1.47;0.80;;;;;;;;;;20809952;28;20276;-68
2022/10/26 22:24:53;;;;;;;2.00;0.83;;;;;;;;;;20779067;28;20276;-68
2022/10/26 22:34:55;;;;;;;2.90;0.90;;;;;;;;;;20794704;28;20567;-68
2022/10/26 22:44:57;;;;;;;1.37;1.10;;;;;;;;;;20793417;28;20230;-68
2022/10/26 22:54:59;;;;;;;1.40;1.00;;;;;;;;;;20797080;28;20281;-68
2022/10/26 23:05:01;;;;;;;2.87;1.00;;;;;;;;;;20808060;28;20299;-68
2022/10/26 23:15:03;;;;;;;2.20;0.93;;;;;;;;;;20791845;28;20218;-68
2022/10/26 23:25:05;;;;;;;1.93;0.97;;;;;;;;;;20790609;28;20272;-68
2022/10/26 23:35:07;;;;;;;2.87;1.00;;;;;;;;;;20790407;28;20210;-68
2022/10/26 23:45:09;;;;;;;1.77;0.93;;;14.80;99.90;;;;;;20773195;28;20222;-68
2022/10/26 23:55:11;;;;;;;1.30;0.60;;;;;;;;;;20772530;28;20199;-68
